createdAt,value
2022-08-10T00:01:04.546Z,19.44
2022-08-10T00:03:31.203Z,19.41
2022-08-10T00:05:57.767Z,19.40
2022-08-10T00:08:24.793Z,19.39
2022-08-10T00:10:56.838Z,19.36
2022-08-10T00:13:25.452Z,19.35
2022-08-10T00:15:54.943Z,19.33
2022-08-10T00:18:34.808Z,19.30
2022-08-10T00:21:07.222Z,19.28
2022-08-10T00:23:34.617Z,19.25
2022-08-10T00:26:01.853Z,19.23
2022-08-10T00:28:28.451Z,19.20
2022-08-10T00:30:55.129Z,19.19
2022-08-10T00:33:21.795Z,19.15
2022-08-10T00:35:48.884Z,19.13
2022-08-10T00:38:15.588Z,19.11
2022-08-10T00:40:42.284Z,19.09
2022-08-10T00:43:09.243Z,19.07
2022-08-10T00:45:36.321Z,19.05
2022-08-10T00:48:03.487Z,19.01
2022-08-10T00:50:30.476Z,19.01
2022-08-10T00:52:57.113Z,18.98
2022-08-10T00:55:24.332Z,18.96
2022-08-10T00:57:55.229Z,18.93
2022-08-10T01:00:23.638Z,18.90
2022-08-10T01:02:50.380Z,18.84
2022-08-10T01:05:17.158Z,18.81
2022-08-10T01:08:08.262Z,18.75
2022-08-10T01:10:34.925Z,18.72
2022-08-10T01:13:11.083Z,18.67
2022-08-10T01:16:07.823Z,18.62
2022-08-10T01:18:49.817Z,18.56
2022-08-10T01:21:22.485Z,18.53
2022-08-10T01:24:10.485Z,18.45
2022-08-10T01:26:55.923Z,18.41
2022-08-10T01:29:40.321Z,18.34
2022-08-10T01:32:10.446Z,18.33
2022-08-10T01:34:48.501Z,18.27
2022-08-10T01:37:17.279Z,18.11
2022-08-10T01:39:47.067Z,18.17
2022-08-10T01:42:18.695Z,18.11
2022-08-10T01:45:00.232Z,18.08
2022-08-10T01:47:41.288Z,18.01
2022-08-10T01:50:25.800Z,17.96
2022-08-10T01:52:58.525Z,17.93
2022-08-10T01:55:26.840Z,17.89
2022-08-10T01:57:53.613Z,17.76
2022-08-10T02:00:21.360Z,17.83
2022-08-10T02:02:50.302Z,17.79
2022-08-10T02:05:18.444Z,17.77
2022-08-10T02:07:46.941Z,17.64
2022-08-10T02:10:16.917Z,17.69
2022-08-10T02:12:46.671Z,17.67
2022-08-10T02:15:18.318Z,17.64
2022-08-10T02:18:01.996Z,17.58
2022-08-10T02:20:34.451Z,17.55
2022-08-10T02:23:07.147Z,17.51
2022-08-10T02:25:40.830Z,17.49
2022-08-10T02:28:27.116Z,17.44
2022-08-10T02:31:18.345Z,17.40
2022-08-10T02:33:57.233Z,17.38
2022-08-10T02:36:27.702Z,17.35
2022-08-10T02:38:58.937Z,17.32
2022-08-10T02:45:14.849Z,17.30
2022-08-10T02:45:18.529Z,17.24
2022-08-10T02:47:22.253Z,17.22
2022-08-10T02:49:55.734Z,17.19
2022-08-10T02:52:28.159Z,17.16
2022-08-10T02:55:05.982Z,17.15
2022-08-10T02:58:14.571Z,17.15
2022-08-10T03:00:40.865Z,17.13
2022-08-10T03:03:12.505Z,17.13
2022-08-10T03:05:39.756Z,17.13
2022-08-10T03:08:08.022Z,17.13
2022-08-10T03:10:42.388Z,17.12
2022-08-10T03:13:11.049Z,17.13
2022-08-10T03:15:40.067Z,17.14
2022-08-10T03:18:08.996Z,17.14
2022-08-10T03:20:40.121Z,17.15
2022-08-10T03:23:13.771Z,17.16
2022-08-10T03:25:52.756Z,17.18
2022-08-10T03:28:23.314Z,17.21
2022-08-10T03:30:50.513Z,17.24
2022-08-10T03:33:18.002Z,17.26
2022-08-10T03:36:41.985Z,17.28
2022-08-10T03:38:31.393Z,17.32
2022-08-10T03:41:02.971Z,17.35
2022-08-10T03:43:30.725Z,17.38
2022-08-10T03:45:59.961Z,17.39
2022-08-10T03:48:32.447Z,17.42
2022-08-10T03:51:17.466Z,17.46
2022-08-10T03:54:03.537Z,17.37
2022-08-10T03:56:32.815Z,17.47
2022-08-10T03:59:01.306Z,17.52
2022-08-10T04:02:52.197Z,17.45
2022-08-10T04:04:19.336Z,17.55
2022-08-10T04:06:51.252Z,17.60
2022-08-10T04:09:18.311Z,17.63
2022-08-10T04:11:44.996Z,17.64
2022-08-10T04:14:37.921Z,17.68
2022-08-10T04:16:58.539Z,17.71
2022-08-10T04:19:26.919Z,17.73
2022-08-10T04:22:28.976Z,17.72
2022-08-10T04:25:01.692Z,17.79
2022-08-10T04:27:29.504Z,17.82
2022-08-10T04:29:57.395Z,17.83
2022-08-10T04:32:26.469Z,17.87
2022-08-10T04:34:56.720Z,17.90
2022-08-10T04:37:24.225Z,17.94
2022-08-10T04:39:51.375Z,17.97
2022-08-10T04:42:18.818Z,18.01
2022-08-10T04:44:45.624Z,18.04
2022-08-10T04:47:12.376Z,18.08
2022-08-10T04:49:54.897Z,18.11
2022-08-10T04:52:23.337Z,18.15
2022-08-10T04:54:51.978Z,18.20
2022-08-10T04:57:18.640Z,18.23
2022-08-10T04:59:45.332Z,18.27
2022-08-10T05:02:30.403Z,18.33
2022-08-10T05:04:58.883Z,18.36
2022-08-10T05:07:25.739Z,18.40
2022-08-10T05:10:04.588Z,18.45
2022-08-10T05:12:36.185Z,18.49
2022-08-10T05:15:05.661Z,18.57
2022-08-10T05:17:33.121Z,18.63
2022-08-10T05:20:03.685Z,18.66
2022-08-10T05:22:32.534Z,18.70
2022-08-10T05:24:59.130Z,18.75
2022-08-10T05:27:25.773Z,18.80
2022-08-10T05:30:02.187Z,18.87
2022-08-10T05:32:31.539Z,18.93
2022-08-10T05:34:58.228Z,19.00
2022-08-10T05:38:13.167Z,19.07
2022-08-10T05:40:12.854Z,19.14
2022-08-10T05:42:40.785Z,19.19
2022-08-10T05:45:14.369Z,19.26
2022-08-10T05:48:54.320Z,19.33
2022-08-10T05:50:28.939Z,19.41
2022-08-10T05:52:55.624Z,19.46
2022-08-10T05:55:23.418Z,19.54
2022-08-10T05:57:51.381Z,19.55
2022-08-10T06:00:36.789Z,19.62
2022-08-10T06:03:08.499Z,19.67
2022-08-10T06:05:37.852Z,19.76
2022-08-10T06:08:12.472Z,19.83
2022-08-10T06:12:24.299Z,19.90
2022-08-10T06:13:34.334Z,19.97
2022-08-10T06:16:06.110Z,20.01
2022-08-10T06:18:33.258Z,20.10
2022-08-10T06:21:00.702Z,20.16
2022-08-10T06:23:29.467Z,20.24
2022-08-10T06:26:10.261Z,20.33
2022-08-10T06:28:52.941Z,20.38
2022-08-10T06:31:47.655Z,20.45
2022-08-10T06:34:22.497Z,20.52
2022-08-10T06:36:50.156Z,20.60
2022-08-10T06:39:32.852Z,20.68
2022-08-10T06:42:16.636Z,20.74
2022-08-10T06:45:00.708Z,20.79
2022-08-10T06:47:41.537Z,20.89
2022-08-10T06:50:14.064Z,20.95
2022-08-10T06:52:47.045Z,21.04
2022-08-10T06:55:16.937Z,21.11
2022-08-10T06:57:59.493Z,21.21
2022-08-10T07:00:33.346Z,21.32
2022-08-10T07:03:08.684Z,21.40
2022-08-10T07:05:40.470Z,21.50
2022-08-10T07:08:10.959Z,21.61
2022-08-10T07:10:41.298Z,21.51
2022-08-10T07:14:16.918Z,21.69
2022-08-10T07:16:05.306Z,21.74
2022-08-10T07:18:33.432Z,21.79
2022-08-10T07:21:00.728Z,21.75
2022-08-10T07:23:57.700Z,21.93
2022-08-10T07:26:17.878Z,22.02
2022-08-10T07:28:48.093Z,22.07
2022-08-10T07:31:49.303Z,22.15
2022-08-10T07:34:05.929Z,22.18
2022-08-10T07:36:33.902Z,22.20
2022-08-10T07:39:02.032Z,22.25
2022-08-10T07:41:29.335Z,22.20
2022-08-10T07:43:57.682Z,22.34
2022-08-10T07:46:26.920Z,22.45
2022-08-10T07:49:25.453Z,22.50
2022-08-10T07:51:54.583Z,22.61
2022-08-10T07:54:25.295Z,22.68
2022-08-10T07:56:53.904Z,22.76
2022-08-10T07:59:25.774Z,22.82
2022-08-10T08:01:55.856Z,22.95
2022-08-10T08:04:24.976Z,23.02
2022-08-10T08:06:53.461Z,23.08
2022-08-10T08:09:21.994Z,23.14
2022-08-10T08:11:50.157Z,23.16
2022-08-10T08:14:17.858Z,23.23
2022-08-10T08:16:47.414Z,23.31
2022-08-10T08:19:37.195Z,23.34
2022-08-10T08:24:10.071Z,23.40
2022-08-10T08:24:52.448Z,23.48
2022-08-10T08:27:21.128Z,23.57
2022-08-10T08:29:49.545Z,23.65
2022-08-10T08:32:28.075Z,23.69
2022-08-10T08:35:02.514Z,23.83
2022-08-10T08:38:29.302Z,23.87
2022-08-10T08:40:30.535Z,23.93
2022-08-10T08:43:09.041Z,23.99
2022-08-10T08:45:58.692Z,24.04
2022-08-10T08:48:45.533Z,24.15
2022-08-10T08:52:09.608Z,24.23
2022-08-10T08:54:29.051Z,24.27
2022-08-10T08:57:50.096Z,24.36
2022-08-10T09:00:29.956Z,24.45
2022-08-10T09:03:22.971Z,24.61
2022-08-10T09:06:11.518Z,24.68
2022-08-10T09:08:52.829Z,24.68
2022-08-10T09:11:19.554Z,24.77
2022-08-10T09:13:59.095Z,24.80
2022-08-10T09:17:07.125Z,24.81
2022-08-10T09:19:46.974Z,24.84
2022-08-10T09:22:29.572Z,25.07
2022-08-10T09:25:14.612Z,25.10
2022-08-10T09:27:47.705Z,25.20
2022-08-10T09:30:29.366Z,25.19
2022-08-10T09:36:24.401Z,25.26
2022-08-10T09:36:24.975Z,25.36
2022-08-10T09:40:12.417Z,25.46
2022-08-10T09:42:39.467Z,25.47
2022-08-10T09:45:24.140Z,25.52
2022-08-10T09:48:23.099Z,25.57
2022-08-10T09:54:16.740Z,25.70
2022-08-10T09:57:18.169Z,25.76
2022-08-10T10:00:10.016Z,25.81
2022-08-10T10:02:59.841Z,25.99
2022-08-10T10:05:50.351Z,26.09
2022-08-10T10:08:21.807Z,26.12
2022-08-10T10:11:11.957Z,26.16
2022-08-10T10:14:03.770Z,26.23
2022-08-10T10:17:00.261Z,26.31
2022-08-10T10:19:48.478Z,26.50
2022-08-10T10:22:38.354Z,26.51
2022-08-10T10:25:19.992Z,26.59
2022-08-10T10:28:13.173Z,26.66
2022-08-10T10:31:16.397Z,26.65
2022-08-10T10:33:54.321Z,26.78
2022-08-10T10:36:22.155Z,26.76
2022-08-10T10:38:55.242Z,26.82
2022-08-10T10:42:03.714Z,26.84
2022-08-10T10:44:56.010Z,26.86
2022-08-10T10:47:48.144Z,26.94
2022-08-10T10:50:26.888Z,26.89
2022-08-10T10:53:12.411Z,26.86
2022-08-10T10:56:14.258Z,26.89
2022-08-10T10:58:58.790Z,26.84
2022-08-10T11:01:43.007Z,26.79
2022-08-10T11:04:27.310Z,26.79
2022-08-10T11:07:22.879Z,26.72
2022-08-10T11:10:31.977Z,26.89
2022-08-10T11:14:26.092Z,26.85
2022-08-10T11:16:16.928Z,26.81
2022-08-10T11:19:17.111Z,26.73
2022-08-10T11:21:43.670Z,26.94
2022-08-10T11:24:48.625Z,26.88
2022-08-10T11:27:25.697Z,26.91
2022-08-10T11:29:58.777Z,27.02
2022-08-10T11:32:54.728Z,27.03
2022-08-10T11:35:44.988Z,27.05
2022-08-10T11:38:32.725Z,27.07
2022-08-10T11:42:07.869Z,27.13
2022-08-10T11:44:44.777Z,27.12
2022-08-10T11:47:17.312Z,27.03
2022-08-10T11:49:59.863Z,26.98
2022-08-10T11:52:39.300Z,26.97
2022-08-10T11:55:22.414Z,27.03
2022-08-10T11:57:53.870Z,27.03
2022-08-10T12:00:22.144Z,27.08
2022-08-10T12:03:05.864Z,27.16
2022-08-10T12:05:53.854Z,27.21
2022-08-10T12:10:06.915Z,27.40
2022-08-10T12:11:24.080Z,27.48
2022-08-10T12:14:31.027Z,27.35
2022-08-10T12:17:03.237Z,27.35
2022-08-10T12:20:02.455Z,27.37
2022-08-10T12:22:32.906Z,27.47
2022-08-10T12:25:03.530Z,27.56
2022-08-10T12:27:38.753Z,27.66
2022-08-10T12:30:10.120Z,27.76
2022-08-10T12:33:00.253Z,27.95
2022-08-10T12:35:56.058Z,28.03
2022-08-10T12:38:34.498Z,28.12
2022-08-10T12:41:08.121Z,28.11
2022-08-10T12:44:07.737Z,28.17
2022-08-10T12:46:39.088Z,28.18
2022-08-10T12:49:08.500Z,28.11
2022-08-10T12:51:40.874Z,28.28
2022-08-10T12:54:32.672Z,28.37
2022-08-10T12:57:03.533Z,28.40
2022-08-10T12:59:32.210Z,28.40
2022-08-10T13:02:07.024Z,28.56
2022-08-10T13:04:40.288Z,28.55
2022-08-10T13:08:24.516Z,28.56
2022-08-10T13:10:04.785Z,28.52
2022-08-10T13:12:36.853Z,28.54
2022-08-10T13:15:44.583Z,28.65
2022-08-10T13:18:05.215Z,28.65
2022-08-10T13:20:37.815Z,28.65
2022-08-10T13:23:17.416Z,28.65
2022-08-10T13:25:47.039Z,28.57
2022-08-10T13:28:36.666Z,28.51
2022-08-10T13:31:11.725Z,28.52
2022-08-10T13:34:40.882Z,28.53
2022-08-10T13:36:41.626Z,28.55
2022-08-10T13:39:10.427Z,28.65
2022-08-10T13:41:42.354Z,28.72
2022-08-10T13:44:12.742Z,28.93
2022-08-10T13:46:40.118Z,28.96
2022-08-10T13:49:08.162Z,29.03
2022-08-10T13:51:54.552Z,28.98
2022-08-10T13:54:29.064Z,28.94
2022-08-10T13:56:56.747Z,28.91
2022-08-10T14:00:37.865Z,28.94
2022-08-10T14:02:21.823Z,29.04
2022-08-10T14:04:48.748Z,29.05
2022-08-10T14:07:17.746Z,29.05
2022-08-10T14:09:45.105Z,29.07
2022-08-10T14:12:12.668Z,29.13
2022-08-10T14:14:42.945Z,29.18
2022-08-10T14:17:12.593Z,29.22
2022-08-10T14:19:43.610Z,29.31
2022-08-10T14:22:17.178Z,29.40
2022-08-10T14:24:46.842Z,29.47
2022-08-10T14:27:17.978Z,29.63
2022-08-10T14:29:48.029Z,29.81
2022-08-10T14:32:18.676Z,30.03
2022-08-10T14:36:15.433Z,30.13
2022-08-10T14:37:38.973Z,30.22
2022-08-10T14:40:15.752Z,30.37
2022-08-10T14:42:56.439Z,30.51
2022-08-10T14:45:33.124Z,30.75
2022-08-10T14:48:11.448Z,30.92
2022-08-10T14:50:55.402Z,31.28
2022-08-10T14:53:26.879Z,31.46
2022-08-10T14:56:02.122Z,31.55
2022-08-10T14:58:38.648Z,31.65
2022-08-10T15:01:07.823Z,31.86
2022-08-10T15:04:01.174Z,32.10
2022-08-10T15:06:30.379Z,32.33
2022-08-10T15:09:19.454Z,32.38
2022-08-10T15:12:14.448Z,32.51
2022-08-10T15:14:43.876Z,32.63
2022-08-10T15:17:27.280Z,32.71
2022-08-10T15:20:04.548Z,32.86
2022-08-10T15:22:40.644Z,32.93
2022-08-10T15:25:18.829Z,32.99
2022-08-10T15:27:56.341Z,32.99
2022-08-10T15:30:29.658Z,33.07
2022-08-10T15:32:59.843Z,33.14
2022-08-10T15:35:28.801Z,33.18
2022-08-10T15:38:05.828Z,33.22
2022-08-10T15:40:46.721Z,33.32
2022-08-10T15:43:20.784Z,33.53
2022-08-10T15:46:01.941Z,33.56
2022-08-10T15:48:37.280Z,33.61
2022-08-10T15:51:10.572Z,33.72
2022-08-10T15:53:49.260Z,33.73
2022-08-10T15:56:55.165Z,33.88
2022-08-10T15:59:57.100Z,33.91
2022-08-10T16:02:27.935Z,33.96
2022-08-10T16:05:18.476Z,33.98
2022-08-10T16:08:00.364Z,34.06
2022-08-10T16:10:38.554Z,34.10
2022-08-10T16:13:51.072Z,34.18
2022-08-10T16:16:00.490Z,34.15
2022-08-10T16:18:29.381Z,34.24
2022-08-10T16:21:01.332Z,34.34
2022-08-10T16:23:41.104Z,34.30
2022-08-10T16:26:14.419Z,34.27
2022-08-10T16:28:55.095Z,34.27
2022-08-10T16:31:24.318Z,34.34
2022-08-10T16:33:58.919Z,34.30
2022-08-10T16:36:40.361Z,34.34
2022-08-10T16:39:07.785Z,34.47
2022-08-10T16:42:03.156Z,34.58
2022-08-10T16:44:39.198Z,34.59
2022-08-10T16:47:07.673Z,34.65
2022-08-10T16:49:37.493Z,34.68
2022-08-10T16:52:05.767Z,34.57
2022-08-10T16:54:34.357Z,34.53
2022-08-10T16:57:05.171Z,34.49
2022-08-10T16:59:38.857Z,34.49
2022-08-10T17:02:10.537Z,34.52
2022-08-10T17:04:40.663Z,34.45
2022-08-10T17:07:10.642Z,34.52
2022-08-10T17:09:39.408Z,34.55
2022-08-10T17:12:10.636Z,34.53
2022-08-10T17:14:42.871Z,34.57
2022-08-10T17:17:22.352Z,34.55
2022-08-10T17:19:50.943Z,34.57
2022-08-10T17:22:20.693Z,34.52
2022-08-10T17:24:57.313Z,34.37
2022-08-10T17:28:04.882Z,34.30
2022-08-10T17:30:22.083Z,34.22
2022-08-10T17:33:04.542Z,34.20
2022-08-10T17:35:35.211Z,34.12
2022-08-10T17:38:04.974Z,34.11
2022-08-10T17:40:32.439Z,34.11
2022-08-10T17:43:01.387Z,34.05
2022-08-10T17:45:47.616Z,33.97
2022-08-10T17:48:18.084Z,33.97
2022-08-10T17:50:49.946Z,33.91
2022-08-10T17:53:20.482Z,33.84
2022-08-10T17:55:52.891Z,33.73
2022-08-10T17:58:23.113Z,33.60
2022-08-10T18:00:54.765Z,33.43
2022-08-10T18:03:27.587Z,33.13
2022-08-10T18:05:57.876Z,32.82
2022-08-10T18:08:29.117Z,32.35
2022-08-10T18:10:58.369Z,31.90
2022-08-10T18:13:28.839Z,31.39
2022-08-10T18:16:26.327Z,30.81
2022-08-10T18:19:00.588Z,30.33
2022-08-10T18:21:28.834Z,29.92
2022-08-10T18:24:18.492Z,29.43
2022-08-10T18:26:49.765Z,29.08
2022-08-10T18:29:19.778Z,28.75
2022-08-10T18:31:48.323Z,28.44
2022-08-10T18:34:20.453Z,28.13
2022-08-10T18:36:48.955Z,27.87
2022-08-10T18:39:21.806Z,27.61
2022-08-10T18:42:04.657Z,27.37
2022-08-10T18:44:36.421Z,27.13
2022-08-10T18:47:16.174Z,26.93
2022-08-10T18:50:08.906Z,26.67
2022-08-10T18:52:38.143Z,26.53
2022-08-10T18:55:24.498Z,26.35
2022-08-10T18:58:00.295Z,26.17
2022-08-10T19:01:05.753Z,25.96
2022-08-10T19:04:09.460Z,25.78
2022-08-10T19:07:22.822Z,25.59
2022-08-10T19:10:27.467Z,25.41
2022-08-10T19:13:19.089Z,25.24
2022-08-10T19:15:56.071Z,25.11
2022-08-10T19:18:37.209Z,24.97
2022-08-10T19:21:34.707Z,24.84
2022-08-10T19:24:10.458Z,24.71
2022-08-10T19:26:54.098Z,24.58
2022-08-10T19:30:09.161Z,24.47
2022-08-10T19:32:45.436Z,24.32
2022-08-10T19:35:33.635Z,24.23
2022-08-10T19:38:14.732Z,24.13
2022-08-10T19:41:17.482Z,24.02
2022-08-10T19:44:10.809Z,23.89
2022-08-10T19:47:15.029Z,23.79
2022-08-10T19:50:03.093Z,23.69
2022-08-10T19:53:01.863Z,23.60
2022-08-10T19:55:40.463Z,23.51
2022-08-10T19:58:39.397Z,23.41
2022-08-10T20:01:07.731Z,23.34
2022-08-10T20:03:39.705Z,23.27
2022-08-10T20:06:34.550Z,23.18
2022-08-10T20:09:08.363Z,23.08
2022-08-10T20:11:47.436Z,22.99
2022-08-10T20:14:21.271Z,22.94
2022-08-10T20:16:51.323Z,22.85
2022-08-10T20:19:53.940Z,22.77
2022-08-10T20:22:48.808Z,22.65
2022-08-10T20:25:27.596Z,22.58
2022-08-10T20:28:11.302Z,22.50
2022-08-10T20:30:44.709Z,22.43
2022-08-10T20:33:29.003Z,22.38
2022-08-10T20:36:10.083Z,22.30
2022-08-10T20:38:57.422Z,22.22
2022-08-10T20:42:01.861Z,22.15
2022-08-10T20:44:53.537Z,22.07
2022-08-10T20:47:53.720Z,22.05
2022-08-10T20:50:35.297Z,22.00
2022-08-10T20:53:24.865Z,21.93
2022-08-10T20:55:54.492Z,21.89
2022-08-10T20:58:42.910Z,21.84
2022-08-10T21:01:18.093Z,21.78
2022-08-10T21:04:05.797Z,21.74
2022-08-10T21:07:04.767Z,21.65
2022-08-10T21:10:06.017Z,21.58
2022-08-10T21:13:17.016Z,21.48
2022-08-10T21:16:33.372Z,21.43
2022-08-10T21:19:52.208Z,21.36
2022-08-10T21:22:37.799Z,21.31
2022-08-10T21:25:08.889Z,21.25
2022-08-10T21:28:03.494Z,21.17
2022-08-10T21:30:51.080Z,21.10
2022-08-10T21:33:59.386Z,21.03
2022-08-10T21:36:32.662Z,20.97
2022-08-10T21:39:11.237Z,20.91
2022-08-10T21:41:57.309Z,20.86
2022-08-10T21:44:50.781Z,20.77
2022-08-10T21:47:43.328Z,20.71
2022-08-10T21:50:28.016Z,20.66
2022-08-10T21:53:13.309Z,20.60
2022-08-10T21:55:58.095Z,20.55
2022-08-10T21:58:37.061Z,20.48
2022-08-10T22:01:09.145Z,20.44
2022-08-10T22:03:41.864Z,20.38
2022-08-10T22:06:12.036Z,20.35
2022-08-10T22:08:56.739Z,20.29
2022-08-10T22:11:28.133Z,20.25
2022-08-10T22:13:57.600Z,20.21
2022-08-10T22:16:38.166Z,20.15
2022-08-10T22:19:06.479Z,20.11
2022-08-10T22:21:58.552Z,20.07
2022-08-10T22:24:58.422Z,20.02
2022-08-10T22:27:46.586Z,19.99
2022-08-10T22:30:22.566Z,19.98
2022-08-10T22:33:14.990Z,19.94
2022-08-10T22:36:01.819Z,19.90
2022-08-10T22:38:31.299Z,19.88
2022-08-10T22:41:07.368Z,19.85
2022-08-10T22:43:36.895Z,19.83
2022-08-10T22:46:18.988Z,19.80
2022-08-10T22:48:51.031Z,19.75
2022-08-10T22:51:23.015Z,19.72
2022-08-10T22:53:58.543Z,19.66
2022-08-10T22:56:25.258Z,19.64
2022-08-10T22:58:51.853Z,19.58
2022-08-10T23:01:40.928Z,19.53
2022-08-10T23:04:18.269Z,19.47
2022-08-10T23:06:56.376Z,19.42
2022-08-10T23:09:27.008Z,19.39
2022-08-10T23:11:57.653Z,19.33
2022-08-10T23:14:35.136Z,19.28
2022-08-10T23:17:04.079Z,19.23
2022-08-10T23:19:43.392Z,19.16
2022-08-10T23:22:15.323Z,19.10
2022-08-10T23:25:05.935Z,19.03
2022-08-10T23:27:39.204Z,19.00
2022-08-10T23:30:15.682Z,18.97
2022-08-10T23:32:58.520Z,18.91
2022-08-10T23:36:29.660Z,18.88
2022-08-10T23:38:23.967Z,18.83
2022-08-10T23:40:55.476Z,18.80
2022-08-10T23:43:46.732Z,18.77
2022-08-10T23:46:16.629Z,18.75
2022-08-10T23:48:46.753Z,18.70
2022-08-10T23:51:17.113Z,18.69
2022-08-10T23:53:47.694Z,18.64
2022-08-10T23:56:17.058Z,18.61
2022-08-10T23:58:45.987Z,18.57
